< < Back
Terminal Aerodrome Forecast


Current Version              Previous Versions:   1  2  3  4  5  6  7  8  9  

Terminal Aerodrome Forecast

326
FTUS44 KBMX 010500 RRA
TAFBHM
TAF
KBHM 010541Z 0106/0206 14010G17KT P6SM OVC025
     FM010800 13008KT 6SM -DZ BR OVC015
     FM011200 12005KT 4SM -DZ BR OVC007=

Latest METAR

827
SAUS70 KWBC 010800 RRN
MTRBHM
METAR KBHM 010753Z 12010G16KT 10SM FEW019 OVC041 10/06 A3041 RMK AO2
SLP297 T01000056


USA.gov is the U.S. government's official web portal to all federal, state and local government web resources and services.